Potter Junction, Arkansas
Current Conditions -  °F | °C
As of 7:15 AM on Tuesday 21 Oct 2014 (Local Time) from KMEZ Reporting Station
Broken Clouds Broken Clouds  
Wind Chill: 57°   Ceiling: 4100
Heat Index: 57°   Visibility: 5mi
Dew Point: 55°   Wind: 0mph
Humidity: 94%   Direction: NA
Pressure: 30.1"   Gusts: NA
Location:  34.592°N, 94.1901°W
Report Text: KMEZ 211215Z AUTO 00000KT 5SM SCT028 SCT035 BKN041 14/13 A3010 RMK AO2
Loading
Personal Weather Stations






























Interactive Weather Map
Tropical Storm Tracking
New forecast layout! Learn more

10-Day Weather Forecast

Advertisements
Track Severe Weather on mobile